GLRB

Details ICAO GLRB (ROB)
Name MONROVIA ROBERTS INTL
Region Liberia
Timezone Africa/Monrovia (UTC+0.0)
Plans Departing 55
Arriving 48
Stats Elevation 31 ft / 9 m (AMSL)
Location 6.233790° -10.362312°
Runways 1
Magnetic Variation 6.704° W
Sunrise 2017-12-12 06:43:39 UTC / 2017-12-12 06:43:39 Local
Sunset 2017-12-12 18:29:36 UTC / 2017-12-12 18:29:36 Local
Advertisement - Login to hide

Runways

ID Width Length Bearing (true) Bearing (mag) Surface Threshold Offset Overrun Length
04 150 ft / 46 m 11,029 ft / 3,362 m 30.94° 37.64° Asphalt 0 ft / 0 m 0 ft / 0 m
22 150 ft / 46 m 11,029 ft / 3,362 m 210.94° 217.64° Asphalt 1,200 ft / 366 m 0 ft / 0 m

Map

Weather


0- 5 10 15 20 25 30 35+ Temperature / ° C

Clouds and Precipitation
Forecast for 2017-12-12 06:00 UTC. Updated 2 hours ago

Ground ~20,000 ft ~40,000 ft Winds

METAR

GLRB 120430Z 00000KT 5000 BR SCT005 BKN011 25/23 Q1009

TAF

TAF GLRB 112200Z 1200/1306 00000KT 2000 NSC COR VERSION BECMG 1203/1205 3000 BR BECMG 1206/1208 06003KT 0900 FG BKN004 TEMPO 1210/1214 21006KT 4000 BR SCT005 BKN012

Frequencies

Ground 121.90 MHz GND
Tower 121.90 MHz ROBERTS TWR
Approach 118.30 MHz ROBERTS APP
Tower 118.30 MHz ROBERTS TWR
Approach 124.50 MHz ROBERTS APP
Warning: Do not use this data for real-world aviation or navigation. No guarantee of current accuracy is given.